Station info - map view · info · telemetry · weather · raw · status · beacons · messages · bulletins · browse · moving · my account
Callsign, ship name or locator: Clear       
It is possible to search using wildcards (*?) after a prefix. Example: OH*
APRS station AE7VG - show graphs
Map loading...
Mic-E message: In service
Location: 42°56.16' N 123°06.81' W - locator CN82KW64JP - show map - static map
8.5 miles East bearing 86° from Canyonville, Douglas County, Oregon, United States [?]
10.6 miles East bearing 108° from Tri-City, Douglas County, Oregon, United States
36.0 miles North bearing 18° from Grants Pass, Josephine County, Oregon, United States
43.8 miles North bearing 344° from Medford, Jackson County, Oregon, United States
Last position: 2017-10-07 18:05:45 EDT (14d 21h15m ago)
2017-10-07 15:05:45 PDT local time at Canyonville, United States [?]
Altitude: 889 ft
Course: 78°
Speed: 52 MPH
Device: Yaesu: FTM-400DR (rig)
Last path: AE7VG>T2UVQV via DOUGCO,WIDE1*,qAR,WA6KHG (good)
Positions stored: 2868
Stations near current position of AE7VG - show more
callsign distance last heard - EDT      callsign distance last heard - EDT
DOUGCO17.9 miles 359°2017-10-22 15:15:19 AE7ER19.6 miles 355°2017-10-22 15:10:26
AE7ER-119.6 miles 355°2017-10-18 15:59:28 AE7ER-1020.0 miles 358°2017-10-22 15:19:42
DW698321.3 miles 308°2017-10-22 15:13:10 K7RBG-1023.9 miles 327°2017-10-22 15:19:43
KG7QDV-1023.9 miles 327°2017-10-22 15:19:43 K7RBG-1123.9 miles 327°2017-10-22 15:19:43
CW530224.1 miles 326°2017-10-22 15:13:33 AE7ER-927.5 miles 289°2017-10-22 15:16:20
Stations which heard AE7VG directly on radio –
callsign pkts first heard - EDT last heard longest (tx => rx) longest at - EDT
HEBOWX 3 2017-10-07 14:53:17 2017-10-07 15:00:11 CN85NE > CN85CF 44.2 miles 273° 2017-10-07 14:53:17
BULLMT 20 2017-10-07 13:20:05 2017-10-07 14:31:56 CN86NI > CN85OK 64.8 miles 177° 2017-10-07 13:20:05
AC7TK 17 2017-10-07 16:11:16 2017-10-07 16:30:44 CN84LF > CN84LB 11.3 miles 181° 2017-10-07 16:11:16
WOLF 4 2017-10-07 15:19:47 2017-10-07 16:26:40 CN84LT > CN83VO 91.2 miles 154° 2017-10-07 15:19:47
PATSY 2 2017-10-07 15:22:49 2017-10-07 15:23:24 CN84LS > CN84EO 31.9 miles 250° 2017-10-07 15:22:49
WW7RA 1 2017-10-07 12:19:11 2017-10-07 12:19:11 CN87KD > CN87ON 31.9 miles 25° 2017-10-07 12:19:11
DOUGCO 36 2017-10-07 16:46:38 2017-10-07 18:05:45 CN83JR > CN83KE 37.5 miles 174° 2017-10-07 16:46:38
W7PFR-1 1 2017-10-07 12:18:38 2017-10-07 12:18:38 CN87KD > CN86UU 44.5 miles 117° 2017-10-07 12:18:38
SOMTN 3 2017-10-07 12:23:32 2017-10-07 12:33:51 CN87MA > CN87HH 26.4 miles 317° 2017-10-07 12:33:51
KK7BF 2 2017-10-07 17:24:30 2017-10-07 17:38:03 CN83HD > CN82EK 50.7 miles 195° 2017-10-07 17:24:30
WW7CH-12 1 2017-10-07 12:36:19 2017-10-07 12:36:19 CN87NA > CN96DS 57.6 miles 106° 2017-10-07 12:36:19
ERINB 4 2017-10-07 12:20:45 2017-10-07 12:32:37 CN87MB > CN87MQ 43.1 miles 4° 2017-10-07 12:32:37
IDIOTV 1 2017-10-07 14:41:30 2017-10-07 14:41:30 CN85OI > CN85HP 38.1 miles 305° 2017-10-07 14:41:30
W7BJH 8 2017-10-07 15:01:56 2017-10-07 15:07:50 CN85MB > CN84LX 8.8 miles 221° 2017-10-07 15:01:56
EUGENE 8 2017-10-07 15:56:01 2017-10-07 16:36:38 CN84LM > CN84KC 27.7 miles 189° 2017-10-07 15:56:01
W7IG 14 2017-10-07 14:48:02 2017-10-07 15:43:49 CN84LQ > CN85HC 33.5 miles 330° 2017-10-07 15:43:49
LOKOUT 3 2017-10-07 13:53:24 2017-10-07 15:13:09 CN84MV > CN85WT 76.6 miles 34° 2017-10-07 15:13:09
WA6KHG 5 2017-10-07 17:03:05 2017-10-07 17:20:55 CN83IM > CN83KH 18.3 miles 141° 2017-10-07 17:03:05
W7SRA 25 2017-10-07 14:49:59 2017-10-07 15:53:41 CN85OF > CN84KU 30.4 miles 209° 2017-10-07 14:49:59
N7BDW-10 9 2017-10-07 14:02:09 2017-10-07 14:20:42 CN85PN > CN85PR 10.2 miles 353° 2017-10-07 14:20:42
WLTRVL 6 2017-10-07 16:19:35 2017-10-07 16:26:04 CN84LB > CN84OB 10.9 miles 83° 2017-10-07 16:22:34
N7TNG-1 11 2017-10-07 14:06:53 2017-10-07 14:19:32 CN85PN > CN85PP 4.5 miles 2° 2017-10-07 14:19:32
W7YAM-5 1 2017-10-07 15:03:45 2017-10-07 15:03:45 CN85MA > CN85KD 10.5 miles 318° 2017-10-07 15:03:45
BALDPK 15 2017-10-07 13:39:20 2017-10-07 14:42:33 CN86NC > CN85LJ 50.3 miles 188° 2017-10-07 13:39:20
KF7WRS-10 4 2017-10-07 14:27:03 2017-10-07 14:30:30 CN85PK > CN85QL 4.7 miles 70° 2017-10-07 14:30:30
BEAVRT 1 2017-10-07 14:32:24 2017-10-07 14:32:24 CN85PK > CN85OK 4.4 miles 272° 2017-10-07 14:32:24
SADDLE 2 2017-10-07 14:52:09 2017-10-07 15:16:12 CN84LU > CN85HN 52.0 miles 340° 2017-10-07 15:16:12
NICOLI 8 2017-10-07 12:59:46 2017-10-07 13:46:24 CN86MP > CN86GC 45.4 miles 210° 2017-10-07 12:59:46
WITHAM 6 2017-10-07 15:45:11 2017-10-07 16:12:34 CN84LF > CN84IN 27.5 miles 335° 2017-10-07 16:12:34
JUPITR 7 2017-10-07 12:24:42 2017-10-07 12:54:29 CN86MR > CN87MQ 66.3 miles 0° 2017-10-07 12:54:29
W7DG-5 4 2017-10-07 13:11:24 2017-10-07 13:35:15 CN86NL > CN86ME 20.4 miles 190° 2017-10-07 13:11:24
KK7DS-1 2 2017-10-07 14:25:49 2017-10-07 14:27:38 CN85PM > CN85RL 8.1 miles 113° 2017-10-07 14:25:49
K7RMO-1 9 2017-10-07 14:21:18 2017-10-07 15:07:16 CN84MX > CN85MI 25.0 miles 9° 2017-10-07 15:07:16
MEISNR 21 2017-10-07 13:10:49 2017-10-07 14:01:34 CN86NL > CN85MX 36.0 miles 189° 2017-10-07 13:10:49
W7YAM-15 1 2017-10-07 14:56:28 2017-10-07 14:56:28 CN85ND > CN85JF 15.6 miles 288° 2017-10-07 14:56:28

Only position packets which were originated by the station are shown here. The range statistics show some extra long hops, because some digipeaters do not correctly add themselves to the digipeater path. Please check the raw packets.
About this site
This page shows real-time information collected from the Automatic Position Reporting System Internet network (APRS-IS). APRS is used by amateur (ham) radio operators to transmit real-time position information, weather data, telemetry and messages over the radio. A vehicle equipped with a GPS receiver, a VHF transmitter or HF transceiver and a small computer device called a tracker transmits it's location, speed and course in a small data packet, which is then received by a nearby iGate receiving site which forwards the packet on the Internet. Systems connected to the Internet can send information on the APRS-IS without a radio transmitter, or collect and display information transmitted anywhere in the world.
FAQ · Blog · Discussion group · Linking to aprs.fi · AIS sites · Service status · Database statistics · Advertising on aprs.fi · Technical details · API · Change log · Planned changes · Credits and thanks · Terms Of Service · iPhone/iPad APRS